This is the latest recevied weather packets stored in our database for station/object KA6AKH-WX. If no packets are shown the sender has not sent any weather packets the latest 10 day(s).
| Time | Temp. | Humidity | Pressure | Rain* | Wind** | Luminosity | Snow |
|---|---|---|---|---|---|---|---|
| 1788192566 | 28.33° C | 70% | 1019.8 hPa | 0 mm | - | - | - |
| 1788191966 | 28.33° C | 72% | 1019.5 hPa | 0 mm | - | - | - |
| 1788191366 | 28.33° C | 72% | 1019.4 hPa | 0 mm | - | - | - |
| 1788190766 | 28.33° C | 74% | 1019.4 hPa | 0 mm | - | - | - |
| 1788190166 | 27.78° C | 76% | 1019.4 hPa | 0 mm | - | - | - |
| 1788189566 | 27.22° C | 78% | 1019.6 hPa | 0 mm | - | - | - |
| 1788188966 | 27.22° C | 78% | 1019.7 hPa | 0 mm | - | - | - |
| 1788188366 | 27.22° C | 79% | 1019.8 hPa | 0 mm | - | - | - |
| 1788187166 | 26.67° C | 82% | 1019.4 hPa | 0 mm | - | - | - |
| 1788186566 | 26.67° C | 81% | 1019.3 hPa | 0 mm | - | - | - |
| 1788185966 | 26.11° C | 82% | 1019.3 hPa | 0 mm | - | - | - |
| 1788185366 | 26.11° C | 84% | 1019.4 hPa | 0 mm | - | - | - |
| 1788184765 | 25.56° C | 86% | 1019.5 hPa | 0 mm | - | - | - |
| 1788184166 | 25° C | 88% | 1019.5 hPa | 0 mm | - | - | - |
| 1788183566 | 24.44° C | 93% | 1019.6 hPa | 0 mm | - | - | - |
| 1788182365 | 23.33° C | 96% | 1019.6 hPa | 0 mm | - | - | - |
| 1788181767 | 23.33° C | 97% | 1019.8 hPa | 0 mm | - | - | - |
| 1788181165 | 23.33° C | 97% | 1019.7 hPa | 0 mm | - | - | - |
| 1788180565 | 23.33° C | 97% | 1019.6 hPa | 0 mm | - | - | - |
| 1788179965 | 23.33° C | 97% | 1019.5 hPa | 0 mm | - | - | - |
| 1788179365 | 22.78° C | 97% | 1019.5 hPa | 0 mm | - | - | - |
| 1788178765 | 22.78° C | 97% | 1019.5 hPa | 0 mm | - | - | - |
| 1788178165 | 22.78° C | 97% | 1019.4 hPa | 0 mm | - | - | - |
| 1788177565 | 22.78° C | 97% | 1019.3 hPa | 0 mm | - | - | - |
| 1788176965 | 22.22° C | 97% | 1019.3 hPa | 0 mm | - | - | - |
* Rain latest hour (hover to see other rain measurements)
** Current wind speed in m/s (hover to see current wind gust speed)